Time;durP1;ratioP1;P1;durP2;ratioP2;P2;SDS_P1;SDS_P2;PMS_P1;PMS_P2;Temp;Humidity;BMP_temperature;BMP_pressure;BME280_temperature;BME280_humidity;BME280_pressure;Samples;Min_cycle;Max_cycle;Signal;HPM_P1;HPM_P2
2023/10/06 00:01:29;;;;;;;;;;;;;;;17.33;46.64;101396.28;4951533;29;1129;-62
2023/10/06 00:03:58;;;;;;;;;;;;;;;17.22;45.82;101392.66;4953360;29;1906;-63
2023/10/06 00:06:27;;;;;;;;;;;;;;;17.07;45.40;101385.13;4939864;29;1022;-63
2023/10/06 00:08:54;;;;;;;;;;;;;;;17.87;46.54;101387.00;4958672;29;1037;-62
2023/10/06 00:11:31;;;;;;;;;;;;;;;17.34;46.49;101384.22;4949545;29;2385;-62
2023/10/06 00:14:19;;;;;;;;;;;;;;;17.25;46.04;101380.28;4947556;29;1010;-64
2023/10/06 00:16:44;;;;;;;;;;;;;;;18.00;46.68;101388.47;4958050;29;982;-61
2023/10/06 00:19:56;;;;;;;;;;;;;;;17.57;47.14;101376.66;4958664;29;1061;-61
2023/10/06 00:24:42;;;;;;;;;;;;;;;17.90;46.70;101375.47;4942118;29;1915;-61
2023/10/06 00:27:13;;;;;;;;;;;;;;;17.56;47.13;101375.03;4958407;29;1128;-63
2023/10/06 00:29:39;;;;;;;;;;;;;;;17.33;46.53;101376.22;4954487;29;1085;-64
2023/10/06 00:32:23;;;;;;;;;;;;;;;17.22;45.83;101373.41;4949400;29;1130;-65
2023/10/06 00:34:49;;;;;;;;;;;;;;;17.70;46.20;101373.44;4940144;29;1026;-64
2023/10/06 00:37:16;;;;;;;;;;;;;;;17.71;46.91;101377.00;4952054;29;1073;-64
2023/10/06 00:39:42;;;;;;;;;;;;;;;17.42;46.63;101375.47;4966658;28;1325;-65
2023/10/06 00:42:08;;;;;;;;;;;;;;;17.19;45.98;101376.66;4943997;29;2362;-64
2023/10/06 00:44:35;;;;;;;;;;;;;;;17.18;45.39;101374.19;4950881;29;1974;-66
2023/10/06 00:47:05;;;;;;;;;;;;;;;17.00;44.91;101365.28;4939448;29;1119;-63
2023/10/06 00:49:34;;;;;;;;;;;;;;;18.05;45.97;101372.00;4957766;29;1158;-63
2023/10/06 00:51:59;;;;;;;;;;;;;;;17.34;46.74;101367.72;4958263;29;1041;-64
2023/10/06 00:54:25;;;;;;;;;;;;;;;17.20;45.90;101363.78;4957593;29;1114;-65
2023/10/06 00:56:52;;;;;;;;;;;;;;;17.05;45.37;101370.78;4957956;29;1033;-62
2023/10/06 00:59:18;;;;;;;;;;;;;;;17.59;45.98;101360.75;4938861;29;1086;-64
2023/10/06 01:01:44;;;;;;;;;;;;;;;17.53;46.73;101359.88;4938600;29;1129;-64
2023/10/06 01:04:16;;;;;;;;;;;;;;;17.21;45.99;101362.69;4957926;29;1977;-64
2023/10/06 01:06:42;;;;;;;;;;;;;;;18.18;46.61;101354.16;4943750;29;1618;-63
2023/10/06 01:11:43;;;;;;;;;;;;;;;17.35;46.02;101357.53;4957562;29;1861;-63
2023/10/06 01:14:08;;;;;;;;;;;;;;;18.15;47.03;101359.38;4958006;28;1019;-63
2023/10/06 01:16:38;;;;;;;;;;;;;;;17.62;47.34;101357.44;4955861;29;1033;-64
2023/10/06 01:19:25;;;;;;;;;;;;;;;17.33;46.80;101357.81;4958080;29;1061;-64
2023/10/06 01:21:54;;;;;;;;;;;;;;;17.23;45.85;101357.75;4951930;29;1194;-64
2023/10/06 01:24:26;;;;;;;;;;;;;;;17.18;45.93;101341.22;4952052;29;1910;-65
2023/10/06 01:27:05;;;;;;;;;;;;;;;17.66;46.90;101347.56;4945207;29;1093;-64
2023/10/06 01:29:31;;;;;;;;;;;;;;;17.30;46.26;101335.53;4955618;29;1008;-64
2023/10/06 01:31:57;;;;;;;;;;;;;;;17.25;45.64;101336.31;4947059;29;1236;-64
2023/10/06 01:34:24;;;;;;;;;;;;;;;17.71;45.86;101339.34;4957563;29;1053;-64
2023/10/06 01:36:53;;;;;;;;;;;;;;;17.42;46.80;101331.50;4940197;29;926;-64
2023/10/06 01:39:22;;;;;;;;;;;;;;;17.14;46.15;101342.84;4954232;29;1134;-64
2023/10/06 01:41:48;;;;;;;;;;;;;;;17.11;45.59;101349.72;4956171;29;1861;-64
2023/10/06 01:44:15;;;;;;;;;;;;;;;17.92;46.01;101340.31;4957374;29;1910;-64
2023/10/06 01:46:41;;;;;;;;;;;;;;;17.32;46.54;101347.94;4948044;29;1215;-64
2023/10/06 01:49:14;;;;;;;;;;;;;;;17.20;45.73;101350.03;4956877;29;931;-64
2023/10/06 01:51:40;;;;;;;;;;;;;;;17.04;45.58;101341.69;4947078;29;1121;-64
2023/10/06 01:54:14;;;;;;;;;;;;;;;16.99;45.02;101344.38;4942603;29;1131;-64
2023/10/06 01:56:42;;;;;;;;;;;;;;;18.09;45.65;101339.25;4955945;29;1109;-64
2023/10/06 01:59:10;;;;;;;;;;;;;;;17.36;46.35;101349.06;4941158;29;1214;-64
2023/10/06 02:01:42;;;;;;;;;;;;;;;18.03;46.58;101352.16;4948892;29;1217;-64
2023/10/06 02:04:11;;;;;;;;;;;;;;;18.00;47.53;101352.69;4949650;29;1975;-61
2023/10/06 02:06:45;;;;;;;;;;;;;;;17.42;47.36;101353.47;4950498;29;1030;-61
2023/10/06 02:09:15;;;;;;;;;;;;;;;17.38;46.36;101354.28;4948768;29;1089;-64
2023/10/06 02:11:49;;;;;;;;;;;;;;;17.47;46.46;101349.09;4955991;29;2212;-63
2023/10/06 02:14:18;;;;;;;;;;;;;;;17.68;47.45;101352.81;4959772;29;1227;-64
2023/10/06 02:16:47;;;;;;;;;;;;;;;17.45;46.54;101341.94;4955143;29;1064;-63
2023/10/06 02:19:15;;;;;;;;;;;;;;;17.28;45.99;101341.31;4953015;29;1050;-65
2023/10/06 02:21:44;;;;;;;;;;;;;;;17.23;45.19;101339.31;4955457;29;1132;-65
2023/10/06 02:24:10;;;;;;;;;;;;;;;18.28;45.93;101343.16;4944339;29;1984;-65
2023/10/06 02:26:36;;;;;;;;;;;;;;;17.62;46.64;101340.94;4959731;29;1089;-65
2023/10/06 02:29:02;;;;;;;;;;;;;;;17.28;46.45;101333.06;4948803;29;1144;-64
2023/10/06 02:31:27;;;;;;;;;;;;;;;17.09;45.70;101341.69;4960814;29;1030;-65
2023/10/06 02:33:53;;;;;;;;;;;;;;;17.23;45.82;101328.34;4960323;29;1085;-64
2023/10/06 02:36:21;;;;;;;;;;;;;;;17.72;46.86;101332.75;4960316;29;1181;-64
2023/10/06 02:38:47;;;;;;;;;;;;;;;17.43;46.00;101332.31;4960473;29;1111;-61
2023/10/06 02:41:18;;;;;;;;;;;;;;;17.14;45.98;101335.44;4958764;29;1832;-61
2023/10/06 02:43:45;;;;;;;;;;;;;;;17.08;45.41;101331.81;4959850;29;2061;-61
2023/10/06 02:46:10;;;;;;;;;;;;;;;17.68;46.47;101336.31;4958152;29;1627;-60
2023/10/06 02:48:37;;;;;;;;;;;;;;;17.28;46.40;101324.81;4949405;29;1240;-61
2023/10/06 02:51:04;;;;;;;;;;;;;;;17.20;45.67;101336.28;4954100;29;1068;-62
2023/10/06 02:53:35;;;;;;;;;;;;;;;17.04;44.99;101325.19;4953544;29;1049;-62
2023/10/06 02:56:08;;;;;;;;;;;;;;;17.65;45.47;101318.41;4947723;29;1089;-61
2023/10/06 02:58:34;;;;;;;;;;;;;;;17.61;46.31;101325.53;4947337;29;1018;-62
2023/10/06 03:01:03;;;;;;;;;;;;;;;17.21;46.02;101324.22;4952573;29;1587;-62
2023/10/06 03:03:33;;;;;;;;;;;;;;;17.93;46.43;101319.94;4958096;29;1910;-62
2023/10/06 03:06:06;;;;;;;;;;;;;;;17.68;47.12;101323.38;4958822;29;2044;-63
2023/10/06 03:08:32;;;;;;;;;;;;;;;17.25;46.42;101312.44;4958617;29;1150;-62
2023/10/06 03:11:00;;;;;;;;;;;;;;;17.23;45.75;101316.53;4960041;29;1105;-63
2023/10/06 03:13:42;;;;;;;;;;;;;;;17.94;46.69;101309.78;4955615;29;2533;-61
2023/10/06 03:16:14;;;;;;;;;;;;;;;17.42;46.32;101314.19;4958215;29;1243;-60
2023/10/06 03:18:40;;;;;;;;;;;;;;;17.16;45.94;101308.50;4958319;29;1180;-62
2023/10/06 03:23:38;;;;;;;;;;;;;;;17.95;46.82;101303.19;4970741;28;1977;-60
2023/10/06 03:26:04;;;;;;;;;;;;;;;17.50;46.60;101312.84;4958470;29;1242;-63
2023/10/06 03:28:36;;;;;;;;;;;;;;;17.19;46.16;101298.91;4957762;29;1093;-57
2023/10/06 03:33:48;;;;;;;;;;;;;;;18.05;46.08;101310.63;4957713;29;1327;-63
2023/10/06 03:36:16;;;;;;;;;;;;;;;17.42;46.60;101303.19;4957416;29;1260;-62
2023/10/06 03:38:44;;;;;;;;;;;;;;;17.20;46.05;101306.88;4958968;28;1292;-64
2023/10/06 03:41:53;;;;;;;;;;;;;;;18.01;46.56;101313.09;4958902;29;2308;-60
2023/10/06 03:44:04;;;;;;;;;;;;;;;17.41;46.60;101307.84;4951178;29;1906;-62
2023/10/06 03:46:40;;;;;;;;;;;;;;;17.22;46.08;101309.38;4958204;29;1163;-62
2023/10/06 03:49:07;;;;;;;;;;;;;;;18.27;46.40;101314.00;4965550;28;1122;-62
2023/10/06 03:51:40;;;;;;;;;;;;;;;17.50;46.87;101312.84;4957932;29;1218;-56
2023/10/06 03:54:06;;;;;;;;;;;;;;;17.21;46.31;101307.72;4946176;29;1073;-50
2023/10/06 03:56:32;;;;;;;;;;;;;;;17.24;45.53;101310.75;4948221;29;1094;-53
2023/10/06 03:58:59;;;;;;;;;;;;;;;18.10;46.04;101322.50;4952116;29;1141;-56
2023/10/06 04:01:31;;;;;;;;;;;;;;;17.49;46.49;101323.00;4939052;29;1506;-55
2023/10/06 04:03:59;;;;;;;;;;;;;;;17.30;45.65;101321.78;4957276;29;1887;-55
2023/10/06 04:06:28;;;;;;;;;;;;;;;17.16;45.58;101321.44;4957774;29;1180;-54
2023/10/06 04:08:56;;;;;;;;;;;;;;;17.12;44.92;101320.28;4951648;29;1126;-54
2023/10/06 04:11:22;;;;;;;;;;;;;;;17.08;44.56;101326.31;4950212;29;2399;-55
2023/10/06 04:13:48;;;;;;;;;;;;;;;17.67;46.37;101324.50;4957572;29;876;-55
2023/10/06 04:16:14;;;;;;;;;;;;;;;17.22;46.36;101320.34;4957999;29;963;-55
2023/10/06 04:18:40;;;;;;;;;;;;;;;17.11;45.54;101327.72;4946638;29;1148;-55
2023/10/06 04:21:11;;;;;;;;;;;;;;;17.03;45.32;101326.28;4945823;29;1112;-56
2023/10/06 04:23:41;;;;;;;;;;;;;;;18.23;45.77;101328.56;4950747;29;1979;-56
2023/10/06 04:26:07;;;;;;;;;;;;;;;17.41;46.73;101329.81;4941241;29;916;-57
2023/10/06 04:28:33;;;;;;;;;;;;;;;17.16;46.41;101324.19;4950585;29;1025;-56
2023/10/06 04:31:00;;;;;;;;;;;;;;;17.02;45.54;101332.84;4940946;29;1120;-55
2023/10/06 04:33:28;;;;;;;;;;;;;;;17.05;45.16;101337.81;4957379;28;1030;-55
2023/10/06 04:35:59;;;;;;;;;;;;;;;16.98;44.89;101337.22;4956041;29;1111;-56
2023/10/06 04:38:29;;;;;;;;;;;;;;;18.07;43.74;101347.78;4939310;29;953;-57
2023/10/06 04:40:56;;;;;;;;;;;;;;;17.66;45.07;101352.25;4955487;29;1100;-57
2023/10/06 04:43:22;;;;;;;;;;;;;;;17.46;45.88;101348.28;4958089;29;2699;-57
2023/10/06 04:45:48;;;;;;;;;;;;;;;17.34;46.04;101342.16;4954479;29;1128;-55
2023/10/06 04:48:18;;;;;;;;;;;;;;;17.20;46.73;101345.34;4947051;29;1176;-55
2023/10/06 04:50:44;;;;;;;;;;;;;;;17.13;46.82;101349.44;4955461;29;1080;-56
2023/10/06 04:53:11;;;;;;;;;;;;;;;17.02;47.35;101351.28;4957723;29;1127;-57
2023/10/06 04:55:40;;;;;;;;;;;;;;;16.97;47.73;101351.22;4945075;29;1085;-57
2023/10/06 04:58:08;;;;;;;;;;;;;;;16.88;47.90;101357.19;4958007;29;1009;-55
2023/10/06 05:00:33;;;;;;;;;;;;;;;16.81;48.05;101353.81;4953369;29;1143;-55
2023/10/06 05:02:59;;;;;;;;;;;;;;;16.76;48.56;101360.09;4957696;28;1977;-56
2023/10/06 05:05:26;;;;;;;;;;;;;;;16.70;48.43;101369.34;4964281;28;1109;-57
2023/10/06 05:07:53;;;;;;;;;;;;;;;16.65;48.82;101368.47;4954769;29;1286;-55
2023/10/06 05:10:21;;;;;;;;;;;;;;;16.59;49.13;101365.69;4957762;29;1080;-55
2023/10/06 05:12:50;;;;;;;;;;;;;;;17.77;46.55;101365.78;4954370;29;2422;-53
2023/10/06 05:15:30;;;;;;;;;;;;;;;17.21;47.95;101373.69;4950255;29;1057;-55
2023/10/06 05:18:03;;;;;;;;;;;;;;;16.95;48.67;101365.22;4941968;29;1085;-56
2023/10/06 05:20:32;;;;;;;;;;;;;;;16.80;49.01;101382.34;4947318;29;1081;-56
2023/10/06 05:23:07;;;;;;;;;;;;;;;16.69;49.27;101384.19;4955372;29;1981;-58
2023/10/06 05:25:33;;;;;;;;;;;;;;;16.64;49.52;101386.88;4954733;29;965;-55
2023/10/06 05:27:59;;;;;;;;;;;;;;;17.75;47.09;101390.00;4945166;29;1144;-54
2023/10/06 05:30:28;;;;;;;;;;;;;;;17.20;48.29;101389.31;4957388;29;1169;-56
2023/10/06 05:32:57;;;;;;;;;;;;;;;16.96;49.16;101382.53;4957736;29;1147;-54
2023/10/06 05:35:24;;;;;;;;;;;;;;;16.76;49.31;101395.78;4957548;29;1117;-57
2023/10/06 05:37:50;;;;;;;;;;;;;;;16.71;50.00;101403.97;4945391;29;866;-56
2023/10/06 05:40:16;;;;;;;;;;;;;;;16.58;50.19;101407.16;4944268;29;1029;-57
2023/10/06 05:42:48;;;;;;;;;;;;;;;17.27;48.72;101405.59;4943780;29;2732;-54
2023/10/06 05:45:18;;;;;;;;;;;;;;;17.37;48.61;101404.84;4953664;28;1066;-56
2023/10/06 05:47:45;;;;;;;;;;;;;;;16.97;49.37;101404.25;4961036;28;1149;-56
2023/10/06 05:50:11;;;;;;;;;;;;;;;16.84;49.83;101401.91;4954478;28;1354;-57
2023/10/06 05:52:38;;;;;;;;;;;;;;;16.67;50.43;101408.31;4961138;29;1041;-54
2023/10/06 05:55:12;;;;;;;;;;;;;;;16.81;50.18;101413.41;4955669;29;1022;-57
2023/10/06 05:57:43;;;;;;;;;;;;;;;17.60;48.21;101409.16;4954659;29;1066;-54
2023/10/06 06:00:10;;;;;;;;;;;;;;;17.08;49.46;101414.25;4953715;29;1300;-55
2023/10/06 06:02:37;;;;;;;;;;;;;;;16.88;50.03;101419.53;4955315;29;916;-55
2023/10/06 06:05:04;;;;;;;;;;;;;;;16.76;50.33;101431.50;4961015;29;1902;-57
2023/10/06 06:07:30;;;;;;;;;;;;;;;16.66;50.49;101434.16;4961006;29;1144;-57
2023/10/06 06:09:55;;;;;;;;;;;;;;;16.59;50.93;101439.84;4959344;29;1085;-58
2023/10/06 06:12:21;;;;;;;;;;;;;;;17.60;48.53;101433.91;4960591;29;2401;-57
2023/10/06 06:14:47;;;;;;;;;;;;;;;17.37;49.13;101438.66;4952453;28;1133;-59
2023/10/06 06:17:12;;;;;;;;;;;;;;;16.92;50.38;101437.19;4962268;28;1081;-58
2023/10/06 06:19:39;;;;;;;;;;;;;;;16.81;50.51;101435.38;4966698;28;1116;-64
2023/10/06 06:22:05;;;;;;;;;;;;;;;16.69;50.58;101441.84;4947912;29;1088;-63
2023/10/06 06:24:31;;;;;;;;;;;;;;;16.71;50.96;101431.44;4960091;28;1993;-60
2023/10/06 06:26:58;;;;;;;;;;;;;;;17.89;47.94;101426.09;4958590;29;952;-65
2023/10/06 06:29:24;;;;;;;;;;;;;;;17.28;50.22;101432.00;4952095;29;1092;-57
2023/10/06 06:31:49;;;;;;;;;;;;;;;17.06;50.84;101435.66;4958072;28;1243;-57
2023/10/06 06:34:16;;;;;;;;;;;;;;;16.84;51.17;101429.38;4959887;28;1366;-60
2023/10/06 06:36:42;;;;;;;;;;;;;;;16.77;51.25;101430.41;4959696;28;1109;-63
2023/10/06 06:39:10;;;;;;;;;;;;;;;16.65;51.72;101439.88;4956037;28;1046;-60
2023/10/06 06:41:36;;;;;;;;;;;;;;;17.52;49.94;101437.97;4957909;28;1951;-59
2023/10/06 06:44:01;;;;;;;;;;;;;;;17.48;49.96;101433.25;4959693;28;1918;-59
2023/10/06 06:46:29;;;;;;;;;;;;;;;17.09;50.78;101437.88;4960156;28;1311;-57
2023/10/06 06:48:55;;;;;;;;;;;;;;;16.89;51.43;101435.78;4959656;29;1418;-60
2023/10/06 06:51:27;;;;;;;;;;;;;;;16.73;51.82;101444.91;4949612;29;920;-60
2023/10/06 06:53:56;;;;;;;;;;;;;;;16.67;51.90;101434.97;4959464;29;1123;-63
2023/10/06 06:56:26;;;;;;;;;;;;;;;16.90;51.66;101439.34;4958856;28;1271;-58
2023/10/06 06:58:52;;;;;;;;;;;;;;;17.73;49.39;101438.94;4950430;28;1164;-60
2023/10/06 07:01:17;;;;;;;;;;;;;;;17.12;50.99;101421.97;4959127;28;1315;-62
2023/10/06 07:03:43;;;;;;;;;;;;;;;16.93;51.50;101428.66;4967044;28;1980;-62
2023/10/06 07:06:16;;;;;;;;;;;;;;;16.77;51.91;101429.56;4968738;28;1084;-58
2023/10/06 07:08:43;;;;;;;;;;;;;;;16.77;51.85;101429.56;4959519;28;1088;-55
2023/10/06 07:11:12;;;;;;;;;;;;;;;16.65;51.75;101434.38;4958741;29;2455;-59
2023/10/06 07:13:40;;;;;;;;;;;;;;;17.31;50.82;101423.22;4957831;29;1237;-58
2023/10/06 07:16:05;;;;;;;;;;;;;;;17.54;50.14;101423.94;4959529;29;1322;-61
2023/10/06 07:18:31;;;;;;;;;;;;;;;17.13;51.21;101413.47;4959276;28;1417;-58
2023/10/06 07:20:57;;;;;;;;;;;;;;;16.94;51.60;101418.50;4959538;28;1093;-62
2023/10/06 07:23:23;;;;;;;;;;;;;;;16.84;51.74;101415.63;4959246;28;1967;-61
2023/10/06 07:25:48;;;;;;;;;;;;;;;16.81;51.70;101424.41;4964301;28;1172;-60
2023/10/06 07:28:14;;;;;;;;;;;;;;;16.65;52.01;101420.66;4956877;28;1104;-66
2023/10/06 07:30:39;;;;;;;;;;;;;;;17.90;49.59;101405.72;4960544;28;1042;-61
2023/10/06 07:33:08;;;;;;;;;;;;;;;17.31;50.76;101411.41;4960042;28;1092;-64
2023/10/06 07:35:51;;;;;;;;;;;;;;;17.03;51.59;101410.63;4976830;28;1140;-62
2023/10/06 07:38:18;;;;;;;;;;;;;;;16.91;51.84;101414.38;4967888;28;1124;-64
2023/10/06 07:40:43;;;;;;;;;;;;;;;16.82;51.90;101409.59;4958826;28;1108;-59
2023/10/06 07:43:10;;;;;;;;;;;;;;;16.78;52.02;101425.75;4947752;28;1906;-59
2023/10/06 07:45:36;;;;;;;;;;;;;;;16.70;52.27;101426.19;4958856;28;1177;-60
2023/10/06 07:48:05;;;;;;;;;;;;;;;16.67;52.21;101427.53;4959338;28;1284;-61
2023/10/06 07:50:33;;;;;;;;;;;;;;;17.55;50.59;101417.34;4952775;28;1303;-57
2023/10/06 07:52:58;;;;;;;;;;;;;;;17.39;50.83;101417.25;4958712;28;1319;-58
2023/10/06 07:55:24;;;;;;;;;;;;;;;16.99;51.98;101421.31;4958568;28;1119;-59
2023/10/06 07:57:50;;;;;;;;;;;;;;;16.90;52.08;101433.84;4958678;28;1167;-61
2023/10/06 08:00:38;;;;;;;;;;;;;;;16.81;52.17;101429.88;4965185;28;1132;-60
2023/10/06 08:03:04;;;;;;;;;;;;;;;16.72;52.25;101430.34;4953095;28;1907;-61
2023/10/06 08:05:30;;;;;;;;;;;;;;;16.65;52.33;101446.22;4965419;28;1461;-58
2023/10/06 08:07:57;;;;;;;;;;;;;;;17.73;50.26;101452.69;4954057;28;1120;-60
2023/10/06 08:10:23;;;;;;;;;;;;;;;17.31;51.14;101447.97;4964175;28;1405;-62
2023/10/06 08:12:56;;;;;;;;;;;;;;;17.03;51.97;101457.34;4957877;28;2098;-58
2023/10/06 08:15:22;;;;;;;;;;;;;;;16.92;51.91;101456.41;4954580;29;1186;-64
2023/10/06 08:17:50;;;;;;;;;;;;;;;16.74;52.28;101452.06;4969940;28;1139;-63
2023/10/06 08:20:16;;;;;;;;;;;;;;;16.67;52.44;101462.44;4976759;28;1144;-59
2023/10/06 08:22:47;;;;;;;;;;;;;;;16.60;52.52;101468.09;4963386;28;1100;-59
2023/10/06 08:25:16;;;;;;;;;;;;;;;17.34;51.53;101476.88;4969189;28;1996;-60
2023/10/06 08:27:42;;;;;;;;;;;;;;;17.43;51.19;101473.38;4945595;28;1313;-59
2023/10/06 08:30:16;;;;;;;;;;;;;;;16.98;52.30;101480.06;4958774;28;1448;-59
2023/10/06 08:32:48;;;;;;;;;;;;;;;16.85;52.36;101477.72;4957922;28;1196;-59
2023/10/06 08:35:14;;;;;;;;;;;;;;;16.77;52.54;101484.50;4969276;28;1084;-59
2023/10/06 08:37:43;;;;;;;;;;;;;;;16.67;52.85;101485.22;4976757;28;1081;-59
2023/10/06 08:40:16;;;;;;;;;;;;;;;17.36;51.59;101489.25;4959169;28;1192;-57
2023/10/06 08:42:51;;;;;;;;;;;;;;;17.43;51.01;101484.38;4948449;28;1849;-59
2023/10/06 08:45:19;;;;;;;;;;;;;;;17.07;52.07;101483.22;4957828;28;1973;-55
2023/10/06 08:47:45;;;;;;;;;;;;;;;16.86;52.76;101477.47;4957374;28;1405;-60
2023/10/06 08:50:13;;;;;;;;;;;;;;;16.77;52.50;101474.38;4957053;28;1331;-59
2023/10/06 08:52:39;;;;;;;;;;;;;;;16.69;52.67;101463.84;4956678;29;1131;-58
2023/10/06 08:55:06;;;;;;;;;;;;;;;16.66;52.72;101471.75;4957446;28;1088;-62
2023/10/06 08:57:33;;;;;;;;;;;;;;;16.95;52.55;101469.63;4956153;28;1355;-60
2023/10/06 08:59:58;;;;;;;;;;;;;;;17.47;51.51;101464.59;4957722;29;1208;-55
2023/10/06 09:02:25;;;;;;;;;;;;;;;17.04;52.21;101467.22;4957003;28;1093;-57
2023/10/06 09:04:51;;;;;;;;;;;;;;;16.90;52.74;101458.56;4955378;28;1910;-56
2023/10/06 09:07:17;;;;;;;;;;;;;;;16.82;52.56;101468.09;4969776;28;1175;-57
2023/10/06 09:09:43;;;;;;;;;;;;;;;17.34;52.03;101449.38;4963086;28;1152;-61
2023/10/06 09:12:31;;;;;;;;;;;;;;;17.56;51.24;101454.78;4949192;29;2249;-55
2023/10/06 09:14:57;;;;;;;;;;;;;;;17.11;52.19;101456.88;4946075;29;987;-62
2023/10/06 09:17:31;;;;;;;;;;;;;;;16.99;52.46;101453.44;4943138;29;1141;-61
2023/10/06 09:19:57;;;;;;;;;;;;;;;16.91;52.70;101462.97;4947192;29;1390;-60
2023/10/06 09:22:29;;;;;;;;;;;;;;;16.82;52.91;101459.03;4957348;29;1093;-60
2023/10/06 09:24:59;;;;;;;;;;;;;;;16.74;52.78;101458.38;4947671;29;1910;-60
2023/10/06 09:27:25;;;;;;;;;;;;;;;16.69;52.82;101457.50;4950458;29;1038;-62
2023/10/06 09:30:11;;;;;;;;;;;;;;;17.44;51.92;101447.50;4955678;28;1281;-60
2023/10/06 09:32:37;;;;;;;;;;;;;;;17.38;51.77;101443.06;4938212;29;962;-60
2023/10/06 09:35:21;;;;;;;;;;;;;;;17.12;52.45;101442.03;4949648;29;1069;-59
2023/10/06 09:37:46;;;;;;;;;;;;;;;16.91;53.00;101446.50;4945818;29;1042;-56
2023/10/06 09:40:21;;;;;;;;;;;;;;;16.83;52.80;101446.94;4956414;29;867;-58
2023/10/06 09:42:47;;;;;;;;;;;;;;;16.80;53.01;101444.72;4957302;29;2610;-62
2023/10/06 09:45:15;;;;;;;;;;;;;;;16.85;53.11;101444.75;4956860;29;1911;-61
2023/10/06 09:47:49;;;;;;;;;;;;;;;17.72;51.24;101437.25;4938361;29;1058;-60
2023/10/06 09:50:17;;;;;;;;;;;;;;;17.15;52.65;101446.16;4950167;29;1043;-57
2023/10/06 09:52:43;;;;;;;;;;;;;;;17.00;52.66;101442.19;4955432;29;1075;-59
2023/10/06 09:55:09;;;;;;;;;;;;;;;16.95;52.85;101433.91;4956752;29;1017;-54
2023/10/06 09:57:35;;;;;;;;;;;;;;;16.83;53.21;101422.22;4937846;29;1014;-56
2023/10/06 10:00:00;;;;;;;;;;;;;;;16.78;53.05;101428.50;4949184;29;1144;-56
2023/10/06 10:02:28;;;;;;;;;;;;;;;16.72;52.89;101426.78;4956776;29;1073;-55
2023/10/06 10:04:54;;;;;;;;;;;;;;;17.52;51.72;101417.91;4949574;29;1907;-56
2023/10/06 10:07:19;;;;;;;;;;;;;;;17.48;51.86;101414.00;4937127;29;1136;-58
2023/10/06 10:09:45;;;;;;;;;;;;;;;17.15;52.73;101418.69;4937117;29;1094;-57
2023/10/06 10:12:10;;;;;;;;;;;;;;;16.99;52.96;101415.00;4937186;29;1901;-58
2023/10/06 10:14:43;;;;;;;;;;;;;;;16.91;52.96;101411.63;4938059;29;1084;-60
2023/10/06 10:17:13;;;;;;;;;;;;;;;16.91;53.13;101413.53;4955989;29;919;-60
2023/10/06 10:19:41;;;;;;;;;;;;;;;16.77;53.25;101413.94;4943088;29;1097;-58
2023/10/06 10:22:09;;;;;;;;;;;;;;;16.90;52.98;101406.38;4950166;29;1029;-59
2023/10/06 10:24:35;;;;;;;;;;;;;;;17.71;51.41;101396.28;4951342;29;1902;-60
2023/10/06 10:27:05;;;;;;;;;;;;;;;17.19;52.51;101389.59;4955225;29;1009;-60
2023/10/06 10:29:31;;;;;;;;;;;;;;;16.99;52.77;101401.25;4950702;29;1404;-60
2023/10/06 10:31:56;;;;;;;;;;;;;;;16.91;53.11;101402.53;4949898;28;1187;-58
2023/10/06 10:34:22;;;;;;;;;;;;;;;16.83;53.34;101405.72;4942632;29;1014;-59
2023/10/06 10:36:48;;;;;;;;;;;;;;;16.81;53.31;101405.16;4960498;28;1153;-58
2023/10/06 10:39:16;;;;;;;;;;;;;;;16.74;53.28;101408.94;4958257;29;1117;-60
2023/10/06 10:41:42;;;;;;;;;;;;;;;17.73;51.53;101400.41;4959108;29;1861;-58
2023/10/06 10:44:08;;;;;;;;;;;;;;;17.37;52.19;101400.19;4958096;29;1902;-59
2023/10/06 10:46:49;;;;;;;;;;;;;;;17.12;53.07;101397.25;4949394;29;1142;-59
2023/10/06 10:49:18;;;;;;;;;;;;;;;16.95;53.32;101392.69;4942767;29;1041;-62
2023/10/06 10:51:57;;;;;;;;;;;;;;;16.87;53.13;101401.38;4951802;29;1065;-60
2023/10/06 10:54:30;;;;;;;;;;;;;;;16.80;53.30;101395.28;4947090;29;1026;-59
2023/10/06 10:57:02;;;;;;;;;;;;;;;16.75;53.04;101383.13;4959724;29;1054;-59
2023/10/06 10:59:46;;;;;;;;;;;;;;;16.76;53.32;101387.56;4959598;29;1184;-56
2023/10/06 11:02:12;;;;;;;;;;;;;;;17.75;51.53;101381.75;4946964;28;1140;-56
2023/10/06 11:04:40;;;;;;;;;;;;;;;17.19;53.04;101382.16;4959013;29;1985;-55
2023/10/06 11:07:13;;;;;;;;;;;;;;;16.99;53.20;101387.53;4954439;29;1062;-58
2023/10/06 11:09:47;;;;;;;;;;;;;;;16.91;53.52;101377.81;4952516;29;1021;-58
2023/10/06 11:12:19;;;;;;;;;;;;;;;16.88;53.33;101375.56;4958201;29;2557;-56
2023/10/06 11:14:44;;;;;;;;;;;;;;;16.78;53.46;101379.06;4959523;29;1151;-55
2023/10/06 11:17:11;;;;;;;;;;;;;;;16.72;53.66;101380.09;4950711;28;997;-57
2023/10/06 11:19:38;;;;;;;;;;;;;;;17.19;53.17;101379.41;4959533;29;1097;-57
2023/10/06 11:22:10;;;;;;;;;;;;;;;17.53;52.47;101383.78;4959380;29;1029;-53
2023/10/06 11:24:36;;;;;;;;;;;;;;;17.09;53.64;101382.09;4959506;29;1899;-55
2023/10/06 11:27:20;;;;;;;;;;;;;;;17.01;53.66;101380.69;4959443;29;1346;-61
2023/10/06 11:29:47;;;;;;;;;;;;;;;16.85;53.82;101373.34;4953072;28;1244;-58
2023/10/06 11:32:13;;;;;;;;;;;;;;;16.78;53.89;101368.06;4959119;28;1096;-64
2023/10/06 11:34:41;;;;;;;;;;;;;;;16.73;53.78;101371.59;4959096;28;1362;-57
2023/10/06 11:37:08;;;;;;;;;;;;;;;17.80;52.35;101369.94;4958927;28;1385;-55
2023/10/06 11:39:33;;;;;;;;;;;;;;;17.29;53.32;101373.16;4956875;28;1380;-56
2023/10/06 11:42:17;;;;;;;;;;;;;;;17.05;53.76;101367.22;4957126;28;1945;-57
2023/10/06 11:44:43;;;;;;;;;;;;;;;16.96;53.92;101371.53;4955801;28;1954;-62
2023/10/06 11:47:09;;;;;;;;;;;;;;;16.83;54.06;101368.13;4959857;28;1385;-56
2023/10/06 11:49:51;;;;;;;;;;;;;;;16.79;54.15;101371.63;4957524;28;1200;-57
2023/10/06 11:52:17;;;;;;;;;;;;;;;16.71;54.09;101362.78;4954969;29;1180;-57
2023/10/06 11:54:43;;;;;;;;;;;;;;;16.66;54.04;101368.25;4966031;28;1314;-56
2023/10/06 11:57:09;;;;;;;;;;;;;;;16.79;54.16;101368.88;4961768;28;1255;-57
2023/10/06 11:59:34;;;;;;;;;;;;;;;17.96;52.52;101370.84;4961093;28;1200;-56
2023/10/06 12:02:09;;;;;;;;;;;;;;;17.28;54.01;101374.28;4965843;28;1112;-55
2023/10/06 12:04:34;;;;;;;;;;;;;;;17.05;54.26;101378.22;4962159;28;1910;-55
2023/10/06 12:07:00;;;;;;;;;;;;;;;16.94;54.49;101380.03;4959985;28;1116;-55
2023/10/06 12:09:29;;;;;;;;;;;;;;;16.88;54.44;101386.56;4965302;28;1393;-56
2023/10/06 12:11:56;;;;;;;;;;;;;;;16.82;54.14;101376.63;4956231;28;1929;-59
2023/10/06 12:14:22;;;;;;;;;;;;;;;17.31;54.46;101379.25;4950469;29;1105;-59
2023/10/06 12:16:47;;;;;;;;;;;;;;;17.49;53.99;101377.16;4947293;29;1102;-60
2023/10/06 12:19:13;;;;;;;;;;;;;;;17.09;54.65;101371.09;4958356;29;1010;-57
2023/10/06 12:21:38;;;;;;;;;;;;;;;16.96;54.73;101377.88;4956570;29;1070;-56
2023/10/06 12:24:04;;;;;;;;;;;;;;;16.86;54.70;101380.50;4959527;28;1977;-57
2023/10/06 12:26:30;;;;;;;;;;;;;;;16.81;54.41;101375.78;4968954;28;1152;-57
2023/10/06 12:28:58;;;;;;;;;;;;;;;16.76;54.44;101390.31;4949467;28;1192;-55
2023/10/06 12:31:24;;;;;;;;;;;;;;;16.68;54.44;101390.75;4957837;29;1128;-55
2023/10/06 12:33:54;;;;;;;;;;;;;;;17.56;54.00;101386.84;4957309;28;1176;-64
2023/10/06 12:36:20;;;;;;;;;;;;;;;17.38;54.62;101396.34;4957538;29;1094;-57
2023/10/06 12:38:45;;;;;;;;;;;;;;;17.12;54.76;101391.75;4958598;28;1104;-58
2023/10/06 12:41:12;;;;;;;;;;;;;;;16.89;54.93;101399.25;4963115;28;1742;-56
2023/10/06 12:43:37;;;;;;;;;;;;;;;16.87;54.52;101395.88;4956517;29;1914;-54
2023/10/06 12:46:03;;;;;;;;;;;;;;;16.79;54.61;101394.44;4951897;29;1192;-58
2023/10/06 12:48:30;;;;;;;;;;;;;;;17.00;55.27;101394.66;4948950;29;1102;-59
2023/10/06 12:50:56;;;;;;;;;;;;;;;17.75;53.82;101405.66;4953251;28;1190;-52
2023/10/06 12:53:22;;;;;;;;;;;;;;;17.18;54.98;101387.94;4955517;29;870;-63
2023/10/06 12:55:56;;;;;;;;;;;;;;;17.00;54.90;101390.00;4947618;28;1044;-63
2023/10/06 12:58:22;;;;;;;;;;;;;;;16.91;54.99;101391.56;4949821;29;1125;-58
2023/10/06 13:00:47;;;;;;;;;;;;;;;16.84;54.89;101405.47;4956042;29;1213;-55
2023/10/06 13:03:16;;;;;;;;;;;;;;;16.72;54.85;101405.63;4945436;29;1910;-55
2023/10/06 13:05:42;;;;;;;;;;;;;;;17.02;55.25;101401.53;4949497;29;1031;-57